Time;durP1;ratioP1;P1;durP2;ratioP2;P2;SDS_P1;SDS_P2;PMS_P1;PMS_P2;Temp;Humidity;BMP_temperature;BMP_pressure;BME280_temperature;BME280_humidity;BME280_pressure;Samples;Min_cycle;Max_cycle;Signal;HPM_P1;HPM_P2
2022/06/08 00:00:30;;;;;;;20.48;18.17;;;17.10;99.90;;;;;;4981252;28;20200;-78
2022/06/08 00:03:02;;;;;;;22.45;20.02;;;17.10;99.90;;;;;;4986031;28;20211;-79
2022/06/08 00:05:30;;;;;;;22.27;19.98;;;17.10;99.90;;;;;;4985543;28;20217;-79
2022/06/08 00:07:59;;;;;;;22.30;19.00;;;17.00;99.90;;;;;;4988432;28;20196;-78
2022/06/08 00:10:26;;;;;;;22.27;18.95;;;17.10;99.90;;;;;;4986976;28;20207;-78
2022/06/08 00:12:54;;;;;;;22.45;19.52;;;17.00;99.90;;;;;;4983951;28;20726;-78
2022/06/08 00:15:22;;;;;;;22.88;20.38;;;16.90;99.90;;;;;;4984403;28;20213;-79
2022/06/08 00:17:49;;;;;;;22.30;19.88;;;16.90;99.90;;;;;;4987211;28;20232;-79
2022/06/08 00:20:17;;;;;;;27.38;23.20;;;16.90;99.90;;;;;;4984178;28;20207;-79
2022/06/08 00:22:45;;;;;;;29.95;24.80;;;16.80;99.90;;;;;;4989329;28;20214;-79
2022/06/08 00:25:14;;;;;;;31.80;26.08;;;16.70;99.90;;;;;;4979326;28;20227;-78
2022/06/08 00:27:42;;;;;;;33.75;26.75;;;16.70;99.90;;;;;;5004523;28;20200;-78
2022/06/08 00:30:11;;;;;;;33.13;26.95;;;16.60;99.90;;;;;;4999668;28;20556;-78
2022/06/08 00:32:40;;;;;;;35.40;28.02;;;16.60;99.90;;;;;;4987141;28;20204;-79
2022/06/08 00:35:09;;;;;;;37.00;30.13;;;16.60;99.90;;;;;;5002374;28;20228;-79
2022/06/08 00:37:37;;;;;;;39.10;31.95;;;16.60;99.90;;;;;;5003202;28;20681;-78
2022/06/08 00:40:07;;;;;;;39.35;31.35;;;16.50;99.90;;;;;;4985181;28;20213;-78
2022/06/08 00:42:36;;;;;;;38.10;29.90;;;16.50;99.90;;;;;;4990570;28;20192;-79
2022/06/08 00:45:07;;;;;;;36.20;30.20;;;16.50;99.90;;;;;;5006596;28;20565;-79
2022/06/08 00:47:38;;;;;;;36.85;29.85;;;16.50;99.90;;;;;;4988238;28;20193;-79
2022/06/08 00:50:10;;;;;;;37.13;30.33;;;16.60;99.90;;;;;;4987578;28;20697;-78
2022/06/08 00:52:37;;;;;;;32.42;27.88;;;16.50;99.90;;;;;;4995214;28;20666;-79
2022/06/08 00:55:09;;;;;;;33.25;27.50;;;16.50;99.90;;;;;;4989616;28;20678;-79
2022/06/08 00:57:42;;;;;;;27.45;24.50;;;16.50;99.90;;;;;;4985695;28;20217;-79
2022/06/08 01:00:12;;;;;;;27.67;24.30;;;16.60;99.90;;;;;;4985478;28;20207;-78
2022/06/08 01:02:40;;;;;;;27.15;23.77;;;16.60;99.90;;;;;;4991694;28;20212;-79
2022/06/08 01:05:24;;;;;;;27.10;23.50;;;16.60;99.90;;;;;;4992471;28;20217;-79
2022/06/08 01:07:56;;;;;;;32.55;26.52;;;16.60;99.90;;;;;;4991577;28;20199;-79
2022/06/08 01:10:29;;;;;;;30.27;24.88;;;16.50;99.90;;;;;;5000020;28;20207;-79
2022/06/08 01:13:04;;;;;;;29.08;25.30;;;16.40;99.90;;;;;;4985114;28;20674;-79
2022/06/08 01:15:36;;;;;;;26.40;22.67;;;16.40;99.90;;;;;;5004231;28;20225;-79
2022/06/08 01:18:04;;;;;;;25.95;23.15;;;16.50;99.90;;;;;;4988412;28;20212;-79
2022/06/08 01:20:32;;;;;;;25.73;23.02;;;16.40;99.90;;;;;;4981598;28;20208;-79
2022/06/08 01:23:02;;;;;;;26.50;21.70;;;16.40;99.90;;;;;;4995089;28;20666;-79
2022/06/08 01:25:35;;;;;;;26.67;22.73;;;16.30;99.90;;;;;;4989887;28;20223;-79
2022/06/08 01:28:14;;;;;;;27.50;23.65;;;16.40;99.90;;;;;;4986047;28;20647;-79
2022/06/08 01:30:52;;;;;;;26.23;21.98;;;16.30;99.90;;;;;;4987773;28;20200;-79
2022/06/08 01:34:01;;;;;;;27.63;23.83;;;16.40;99.90;;;;;;5002701;28;20666;-79
2022/06/08 01:36:50;;;;;;;27.45;22.90;;;16.40;99.90;;;;;;4945457;28;20277;-79
2022/06/08 01:39:28;;;;;;;29.33;24.75;;;16.30;99.90;;;;;;4997937;28;20208;-79
2022/06/08 01:42:12;;;;;;;24.45;21.85;;;16.40;99.90;;;;;;4993969;28;20200;-79
2022/06/08 01:47:58;;;;;;;25.70;22.90;;;16.40;99.90;;;;;;4987147;28;20192;-79
2022/06/08 01:50:35;;;;;;;23.27;20.77;;;16.40;99.90;;;;;;4992965;28;20204;-79
2022/06/08 01:53:10;;;;;;;22.70;20.30;;;16.40;99.90;;;;;;4986523;28;20197;-79
2022/06/08 01:55:47;;;;;;;22.45;20.02;;;16.50;99.90;;;;;;4985502;28;20219;-79
2022/06/08 01:58:21;;;;;;;22.42;19.95;;;16.40;99.90;;;;;;4981669;28;20244;-79
2022/06/08 02:00:56;;;;;;;23.17;20.15;;;16.40;99.90;;;;;;4982091;28;20211;-79
2022/06/08 02:03:29;;;;;;;20.77;18.60;;;16.40;99.90;;;;;;4988356;28;20205;-79
2022/06/08 02:06:02;;;;;;;23.50;20.80;;;16.40;99.90;;;;;;4990796;28;20239;-79
2022/06/08 02:08:39;;;;;;;24.13;21.38;;;16.40;99.90;;;;;;4991477;28;20204;-79
2022/06/08 02:11:18;;;;;;;23.85;20.13;;;16.30;99.90;;;;;;5003661;28;20562;-79
2022/06/08 02:13:52;;;;;;;22.88;20.45;;;16.30;99.90;;;;;;4990529;28;20196;-79
2022/06/08 02:16:26;;;;;;;21.75;19.48;;;16.30;99.90;;;;;;5003357;28;20239;-79
2022/06/08 02:18:59;;;;;;;19.63;17.52;;;16.20;99.90;;;;;;5005891;28;20212;-78
2022/06/08 02:21:32;;;;;;;20.88;18.77;;;16.20;99.90;;;;;;5004379;28;20209;-79
2022/06/08 02:24:16;;;;;;;22.23;19.92;;;16.20;99.90;;;;;;4984677;28;20227;-78
2022/06/08 02:26:53;;;;;;;22.00;19.73;;;16.00;99.90;;;;;;4995088;28;20227;-79
2022/06/08 02:29:27;;;;;;;22.85;19.52;;;16.10;99.90;;;;;;4992275;28;20207;-79
2022/06/08 02:32:00;;;;;;;27.02;21.88;;;16.10;99.90;;;;;;4995521;28;20201;-78
2022/06/08 02:34:32;;;;;;;23.20;20.38;;;16.10;99.90;;;;;;4996570;28;20204;-79
2022/06/08 02:37:09;;;;;;;21.40;19.20;;;16.10;99.90;;;;;;5000571;28;20216;-79
2022/06/08 02:40:03;;;;;;;22.80;20.50;;;16.20;99.90;;;;;;4992107;28;20654;-79
2022/06/08 02:42:45;;;;;;;21.45;18.88;;;16.20;99.90;;;;;;5002047;28;20203;-79
2022/06/08 02:45:20;;;;;;;22.27;19.70;;;16.20;99.90;;;;;;4980000;28;20223;-79
2022/06/08 02:47:51;;;;;;;20.40;18.30;;;16.20;99.90;;;;;;4988132;28;20209;-79
2022/06/08 02:50:21;;;;;;;20.77;18.52;;;16.20;99.90;;;;;;4996054;28;20192;-79
2022/06/08 02:52:50;;;;;;;21.17;19.08;;;16.20;99.90;;;;;;4989377;28;20208;-79
2022/06/08 02:55:25;;;;;;;18.65;16.75;;;16.30;99.90;;;;;;4989849;28;20224;-79
2022/06/08 02:57:59;;;;;;;20.73;18.63;;;16.30;99.90;;;;;;4982562;28;20221;-79
2022/06/08 03:00:32;;;;;;;22.33;19.92;;;16.20;99.90;;;;;;4989152;28;20197;-78
2022/06/08 03:03:06;;;;;;;21.73;19.48;;;16.30;99.90;;;;;;4991164;28;20224;-78
2022/06/08 03:05:39;;;;;;;21.98;18.98;;;16.20;99.90;;;;;;4979052;28;20212;-79
2022/06/08 03:11:43;;;;;;;19.73;17.20;;;16.10;99.90;;;;;;4996862;28;20200;-78
2022/06/08 03:14:14;;;;;;;21.50;19.10;;;16.10;99.90;;;;;;4999470;28;20576;-79
2022/06/08 03:16:54;;;;;;;21.58;18.73;;;16.00;99.90;;;;;;4991565;28;20219;-79
2022/06/08 03:19:22;;;;;;;21.83;19.50;;;16.00;99.90;;;;;;4984311;28;20208;-79
2022/06/08 03:21:51;;;;;;;21.00;18.80;;;16.00;99.90;;;;;;4989524;28;20204;-79
2022/06/08 03:24:19;;;;;;;19.77;17.77;;;16.00;99.90;;;;;;4990201;28;20197;-79
2022/06/08 03:26:50;;;;;;;19.98;17.85;;;15.90;99.90;;;;;;4989155;28;20224;-79
2022/06/08 03:29:19;;;;;;;20.65;18.52;;;15.90;99.90;;;;;;5010376;28;20208;-78
2022/06/08 03:31:48;;;;;;;21.67;19.48;;;15.80;99.90;;;;;;4997932;28;20205;-79
2022/06/08 03:34:16;;;;;;;19.80;17.70;;;15.90;99.90;;;;;;5006155;28;20204;-79
2022/06/08 03:36:44;;;;;;;19.17;16.88;;;15.90;99.90;;;;;;4989318;28;20698;-79
2022/06/08 03:39:12;;;;;;;18.50;16.55;;;16.00;99.90;;;;;;4999271;28;20212;-78
2022/06/08 03:41:41;;;;;;;17.95;16.05;;;16.10;99.90;;;;;;5001578;28;20204;-79
2022/06/08 03:44:08;;;;;;;18.33;16.25;;;16.10;99.90;;;;;;4993792;28;20200;-78
2022/06/08 03:46:41;;;;;;;15.60;14.05;;;16.10;99.90;;;;;;4990858;28;20243;-78
2022/06/08 03:49:10;;;;;;;16.88;15.07;;;16.10;99.90;;;;;;4986647;28;20203;-78
2022/06/08 03:51:40;;;;;;;17.17;14.60;;;16.00;99.90;;;;;;4992837;28;20219;-78
2022/06/08 03:54:12;;;;;;;18.55;15.88;;;16.10;99.90;;;;;;4994296;28;20196;-78
2022/06/08 03:56:41;;;;;;;17.42;15.07;;;16.00;99.90;;;;;;4999968;28;20581;-78
2022/06/08 03:59:11;;;;;;;16.98;15.18;;;16.00;99.90;;;;;;4994516;28;20212;-78
2022/06/08 04:01:42;;;;;;;16.85;14.35;;;16.00;99.90;;;;;;5006530;28;20201;-78
2022/06/08 04:04:11;;;;;;;17.60;15.07;;;15.90;99.90;;;;;;4991672;28;20204;-78
2022/06/08 04:06:40;;;;;;;17.50;14.45;;;16.00;99.90;;;;;;5007407;28;20220;-78
2022/06/08 04:09:08;;;;;;;17.10;15.30;;;15.90;99.90;;;;;;5005293;28;20205;-78
2022/06/08 04:11:36;;;;;;;15.93;14.23;;;16.00;99.90;;;;;;4989715;28;20211;-78
2022/06/08 04:14:04;;;;;;;17.05;14.40;;;16.00;99.90;;;;;;4991198;28;20212;-78
2022/06/08 04:16:32;;;;;;;14.20;12.63;;;16.10;99.90;;;;;;5007877;28;20223;-79
2022/06/08 04:19:06;;;;;;;13.95;12.45;;;16.20;99.90;;;;;;4989938;28;20231;-78
2022/06/08 04:21:36;;;;;;;14.07;12.68;;;16.20;99.90;;;;;;5007938;28;20196;-79
2022/06/08 04:24:11;;;;;;;12.80;11.50;;;16.20;99.90;;;;;;4991651;28;20189;-79
2022/06/08 04:26:43;;;;;;;10.50;9.43;;;16.30;99.90;;;;;;4990292;28;20230;-78
2022/06/08 04:29:23;;;;;;;10.23;9.20;;;16.40;99.90;;;;;;4995632;28;20207;-79
2022/06/08 04:31:51;;;;;;;9.95;8.80;;;16.40;99.90;;;;;;4988564;28;20205;-79
2022/06/08 04:34:24;;;;;;;10.60;9.50;;;16.50;99.90;;;;;;4988907;28;20204;-78
2022/06/08 04:36:52;;;;;;;9.55;8.40;;;16.50;99.90;;;;;;4989731;28;20219;-79
2022/06/08 04:39:23;;;;;;;9.30;8.30;;;16.60;99.90;;;;;;4994554;28;20702;-78
2022/06/08 04:41:56;;;;;;;8.90;8.00;;;16.60;99.90;;;;;;4991660;28;20670;-79
2022/06/08 04:44:27;;;;;;;8.30;7.50;;;16.70;99.90;;;;;;4994562;28;20211;-78
2022/06/08 04:46:55;;;;;;;8.30;6.93;;;16.70;99.90;;;;;;4981024;28;20224;-78
2022/06/08 04:49:25;;;;;;;8.73;6.90;;;16.70;99.90;;;;;;5002390;28;20200;-78
2022/06/08 04:51:54;;;;;;;6.40;5.68;;;16.70;99.90;;;;;;4982840;28;20197;-79
2022/06/08 04:54:24;;;;;;;7.05;5.72;;;16.60;99.90;;;;;;4995268;28;20197;-79
2022/06/08 04:56:51;;;;;;;6.07;5.38;;;16.70;99.90;;;;;;4988503;28;20212;-78
2022/06/08 04:59:21;;;;;;;7.22;5.25;;;16.60;99.90;;;;;;4981876;28;20581;-79
2022/06/08 05:01:54;;;;;;;4.95;4.38;;;16.60;99.90;;;;;;4989175;28;20204;-79
2022/06/08 05:04:22;;;;;;;5.53;4.75;;;16.70;99.90;;;;;;4988338;28;20215;-79
2022/06/08 05:06:53;;;;;;;4.90;4.25;;;16.70;99.90;;;;;;5004311;28;20229;-78
2022/06/08 05:09:21;;;;;;;5.53;4.25;;;16.70;99.90;;;;;;4989270;28;20192;-78
2022/06/08 05:11:50;;;;;;;4.70;4.03;;;16.70;99.90;;;;;;4988338;28;20670;-78
2022/06/08 05:14:21;;;;;;;5.47;3.88;;;16.80;99.90;;;;;;4983454;28;20244;-78
2022/06/08 05:16:49;;;;;;;4.32;3.72;;;16.80;99.90;;;;;;4986626;28;20225;-79
2022/06/08 05:19:18;;;;;;;5.32;3.75;;;16.80;99.90;;;;;;4990101;28;20223;-78
2022/06/08 05:21:46;;;;;;;4.93;4.30;;;16.80;99.90;;;;;;4987007;28;20204;-79
2022/06/08 05:24:19;;;;;;;5.25;3.33;;;16.80;99.90;;;;;;4999080;28;20205;-78
2022/06/08 05:26:51;;;;;;;5.35;3.90;;;16.80;99.90;;;;;;4986226;28;20224;-78
2022/06/08 05:29:19;;;;;;;5.65;3.40;;;16.90;99.90;;;;;;4978979;28;20562;-78
2022/06/08 05:31:50;;;;;;;4.75;3.88;;;16.90;99.90;;;;;;4980646;28;20212;-78
2022/06/08 05:34:18;;;;;;;4.00;3.47;;;17.00;99.90;;;;;;4983547;28;20578;-79
2022/06/08 05:36:46;;;;;;;5.18;3.78;;;17.10;99.90;;;;;;4986818;28;20228;-79
2022/06/08 05:39:21;;;;;;;4.15;3.72;;;17.20;99.90;;;;;;4999884;28;20678;-78
2022/06/08 05:41:49;;;;;;;4.95;3.75;;;17.10;99.90;;;;;;4989530;28;20200;-78
2022/06/08 05:44:20;;;;;;;4.53;3.97;;;17.20;99.90;;;;;;5005623;28;20193;-79
2022/06/08 05:46:50;;;;;;;5.05;3.95;;;17.20;99.90;;;;;;4991741;28;20580;-79
2022/06/08 05:49:19;;;;;;;4.55;3.50;;;17.30;99.90;;;;;;4998591;28;20751;-79
2022/06/08 05:51:49;;;;;;;4.85;3.40;;;17.30;99.90;;;;;;4981258;28;20205;-78
2022/06/08 05:54:23;;;;;;;4.13;3.80;;;17.40;99.90;;;;;;4986209;28;20211;-78
2022/06/08 05:56:50;;;;;;;4.95;3.53;;;17.30;99.90;;;;;;4990739;28;20220;-78
2022/06/08 05:59:20;;;;;;;4.47;2.95;;;17.40;99.90;;;;;;4986770;28;20220;-79
2022/06/08 06:01:48;;;;;;;4.95;3.47;;;17.40;99.90;;;;;;4984032;28;20213;-79
2022/06/08 06:04:16;;;;;;;4.50;3.58;;;17.40;99.90;;;;;;4983023;28;20200;-78
2022/06/08 06:06:46;;;;;;;3.03;2.70;;;17.50;99.90;;;;;;5003812;28;20216;-78
2022/06/08 06:09:20;;;;;;;5.18;2.88;;;17.60;99.90;;;;;;5005859;28;20188;-78
2022/06/08 06:11:50;;;;;;;4.07;2.88;;;17.50;99.90;;;;;;5004852;28;20208;-79
2022/06/08 06:14:19;;;;;;;3.42;2.70;;;17.60;99.90;;;;;;4984822;28;20200;-78
2022/06/08 06:16:49;;;;;;;3.08;2.78;;;17.70;99.90;;;;;;4990181;28;20228;-79
2022/06/08 06:19:18;;;;;;;4.13;2.78;;;17.70;99.90;;;;;;4986218;28;20216;-79
2022/06/08 06:22:10;;;;;;;4.63;2.88;;;17.80;99.90;;;;;;4988431;28;20208;-79
2022/06/08 06:24:56;;;;;;;3.85;2.40;;;17.70;99.90;;;;;;4991944;28;20219;-78
2022/06/08 06:27:45;;;;;;;3.97;2.25;;;17.70;99.90;;;;;;4983960;28;20204;-78
2022/06/08 06:30:31;;;;;;;2.75;2.13;;;17.70;99.90;;;;;;4998847;28;20207;-78
2022/06/08 06:33:19;;;;;;;3.08;2.13;;;17.80;99.90;;;;;;4989249;28;20541;-78
2022/06/08 06:35:49;;;;;;;2.42;2.22;;;17.80;99.90;;;;;;4991423;28;20239;-79
2022/06/08 06:38:17;;;;;;;2.25;1.83;;;17.80;99.90;;;;;;4990555;28;20665;-78
2022/06/08 06:40:45;;;;;;;3.40;2.15;;;17.90;99.90;;;;;;4990651;28;20217;-79
2022/06/08 06:43:19;;;;;;;2.17;1.98;;;17.90;99.90;;;;;;4979812;28;20729;-79
2022/06/08 06:45:47;;;;;;;4.03;2.45;;;18.00;99.90;;;;;;4993277;28;20224;-79
2022/06/08 06:48:26;;;;;;;2.50;2.00;;;18.00;99.90;;;;;;4990257;28;20200;-79
2022/06/08 06:50:58;;;;;;;4.28;2.30;;;18.10;99.90;;;;;;5008034;28;20693;-78
2022/06/08 06:53:26;;;;;;;2.15;1.95;;;18.00;99.90;;;;;;4987308;28;20200;-79
2022/06/08 06:55:56;;;;;;;3.17;2.30;;;18.00;99.90;;;;;;4981331;28;20231;-79
2022/06/08 06:58:31;;;;;;;3.13;1.88;;;18.10;99.90;;;;;;4988135;28;20203;-79
2022/06/08 07:00:59;;;;;;;3.42;2.38;;;18.20;99.90;;;;;;4989065;28;20227;-79
2022/06/08 07:03:27;;;;;;;2.22;2.03;;;18.30;99.90;;;;;;4990308;28;20705;-79
2022/06/08 07:05:55;;;;;;;5.10;2.20;;;18.30;99.90;;;;;;5007323;28;20217;-79
2022/06/08 07:08:22;;;;;;;3.25;2.20;;;18.40;99.90;;;;;;4991262;28;20204;-79
2022/06/08 07:13:41;;;;;;;2.55;1.88;;;18.50;99.90;;;;;;4998434;28;20189;-78
2022/06/08 07:16:10;;;;;;;2.83;1.70;;;18.40;99.90;;;;;;4985366;28;20236;-78
2022/06/08 07:18:38;;;;;;;2.15;1.80;;;18.40;99.90;;;;;;4989791;28;20196;-78
2022/06/08 07:21:06;;;;;;;3.10;1.58;;;18.50;99.90;;;;;;4990987;28;20227;-78
2022/06/08 07:23:33;;;;;;;2.13;1.92;;;18.60;99.90;;;;;;4991004;28;20196;-79
2022/06/08 07:26:01;;;;;;;2.42;1.70;;;18.60;99.90;;;;;;4989541;28;20231;-79
2022/06/08 07:28:29;;;;;;;4.20;1.60;;;18.70;99.90;;;;;;4989726;28;20196;-79
2022/06/08 07:30:58;;;;;;;1.88;1.45;;;18.80;99.90;;;;;;4991488;28;20200;-79
2022/06/08 07:33:33;;;;;;;1.55;1.20;;;18.80;99.90;;;;;;4989316;28;20203;-79
2022/06/08 07:36:00;;;;;;;2.15;1.20;;;18.90;99.90;;;;;;5005644;28;20223;-79
2022/06/08 07:38:28;;;;;;;3.38;1.50;;;18.90;99.90;;;;;;4990101;28;20663;-78
2022/06/08 07:40:55;;;;;;;4.15;1.45;;;18.90;99.90;;;;;;4989564;28;20256;-79
2022/06/08 07:43:23;;;;;;;2.40;1.50;;;19.10;99.90;;;;;;4991846;28;20204;-78
2022/06/08 07:45:51;;;;;;;1.88;0.88;;;19.10;99.90;;;;;;4991404;28;20609;-78
2022/06/08 07:51:05;;;;;;;1.60;1.08;;;19.00;99.90;;;;;;4990210;28;20207;-78
2022/06/08 07:53:34;;;;;;;1.23;1.13;;;19.00;99.90;;;;;;4989416;28;20197;-78
2022/06/08 07:56:01;;;;;;;2.10;1.15;;;19.10;99.90;;;;;;4990760;28;20224;-79
2022/06/08 07:58:29;;;;;;;1.90;1.17;;;19.10;99.90;;;;;;4989095;28;20213;-79
2022/06/08 08:00:57;;;;;;;1.40;1.10;;;19.20;99.90;;;;;;5005579;28;20224;-79
2022/06/08 08:03:26;;;;;;;3.28;1.40;;;19.30;99.90;;;;;;4988476;28;20557;-78
2022/06/08 08:05:54;;;;;;;1.60;1.13;;;19.40;99.90;;;;;;4987422;28;20224;-79
2022/06/08 08:08:22;;;;;;;1.48;1.20;;;19.50;99.90;;;;;;4984790;28;20205;-79
2022/06/08 08:11:00;;;;;;;4.28;1.40;;;19.60;99.90;;;;;;4988724;28;20212;-79
2022/06/08 08:13:27;;;;;;;1.30;1.00;;;19.70;99.90;;;;;;4983909;28;20211;-79
2022/06/08 08:15:55;;;;;;;2.05;1.10;;;19.70;99.90;;;;;;4993205;28;20224;-79
2022/06/08 08:18:22;;;;;;;1.00;0.90;;;19.60;99.90;;;;;;4994515;28;20663;-79
2022/06/08 08:20:51;;;;;;;1.98;1.20;;;19.70;99.90;;;;;;4988710;28;20204;-79
2022/06/08 08:23:19;;;;;;;1.88;1.10;;;19.70;99.90;;;;;;5005544;28;20216;-78
2022/06/08 08:25:46;;;;;;;2.63;1.00;;;19.70;99.90;;;;;;4986533;28;20728;-79
2022/06/08 08:28:14;;;;;;;2.47;1.00;;;19.80;99.90;;;;;;5008185;28;20207;-78
2022/06/08 08:30:41;;;;;;;1.08;0.80;;;19.60;99.90;;;;;;4998631;28;20200;-78
2022/06/08 08:33:09;;;;;;;1.83;0.82;;;19.60;99.90;;;;;;4997989;28;20200;-78
2022/06/08 08:35:36;;;;;;;2.25;1.13;;;19.60;99.90;;;;;;5010137;28;20224;-78
2022/06/08 08:38:05;;;;;;;1.10;0.80;;;19.70;99.90;;;;;;4993419;28;20669;-79
2022/06/08 08:40:46;;;;;;;1.17;0.90;;;19.90;99.90;;;;;;4993976;28;20236;-78
2022/06/08 08:43:16;;;;;;;1.13;0.80;;;19.90;99.90;;;;;;5008232;28;20196;-78
2022/06/08 08:45:53;;;;;;;2.83;1.30;;;19.80;99.90;;;;;;4991874;28;20243;-78
2022/06/08 08:48:27;;;;;;;1.08;0.98;;;19.90;99.90;;;;;;4990897;28;20561;-78
2022/06/08 08:51:05;;;;;;;1.15;0.90;;;20.00;99.90;;;;;;5008451;28;20200;-79
2022/06/08 08:53:43;;;;;;;1.70;1.00;;;20.10;99.90;;;;;;4988358;28;20219;-78
2022/06/08 08:56:15;;;;;;;3.15;0.70;;;20.00;99.90;;;;;;4991527;28;20220;-78
2022/06/08 08:58:45;;;;;;;0.90;0.90;;;20.00;99.90;;;;;;5004845;28;20208;-78
2022/06/08 09:01:18;;;;;;;1.77;0.77;;;20.00;99.90;;;;;;4986076;28;20219;-78
2022/06/08 09:03:48;;;;;;;1.85;0.98;;;20.20;99.90;;;;;;4985714;28;20208;-78
2022/06/08 09:06:20;;;;;;;2.58;0.90;;;20.30;99.90;;;;;;4986649;28;20220;-79
2022/06/08 09:08:54;;;;;;;1.38;0.95;;;20.30;99.90;;;;;;4990581;28;20228;-78
2022/06/08 09:11:25;;;;;;;2.85;1.08;;;20.40;99.90;;;;;;4991326;28;20181;-78
2022/06/08 09:14:03;;;;;;;2.25;0.90;;;20.50;99.90;;;;;;5009008;28;20658;-78
2022/06/08 09:16:38;;;;;;;1.80;0.73;;;20.70;99.90;;;;;;5003318;28;20216;-78
2022/06/08 09:19:28;;;;;;;1.40;1.00;;;20.80;99.90;;;;;;5002043;28;20571;-78
2022/06/08 09:21:59;;;;;;;1.48;1.10;;;20.80;99.90;;;;;;4993508;28;20204;-77
2022/06/08 09:24:33;;;;;;;1.35;1.10;;;20.80;99.90;;;;;;4985456;28;20714;-78
2022/06/08 09:27:15;;;;;;;3.60;1.10;;;20.70;99.90;;;;;;4989058;28;20231;-78
2022/06/08 09:29:52;;;;;;;2.22;1.20;;;20.90;99.90;;;;;;5006770;28;20199;-78
2022/06/08 09:32:28;;;;;;;2.90;1.08;;;20.80;99.90;;;;;;5005330;28;20207;-78
2022/06/08 09:34:58;;;;;;;3.50;1.27;;;20.60;99.90;;;;;;5007271;28;20208;-78
2022/06/08 09:37:27;;;;;;;2.25;1.00;;;20.50;99.90;;;;;;4988522;28;20207;-78
2022/06/08 09:40:02;;;;;;;2.50;1.30;;;20.60;99.90;;;;;;4991878;28;20213;-78
2022/06/08 09:42:56;;;;;;;3.35;1.20;;;20.70;99.90;;;;;;4992869;28;20219;-79
2022/06/08 09:45:36;;;;;;;4.03;1.20;;;20.80;99.90;;;;;;4988413;28;20228;-78
2022/06/08 09:51:26;;;;;;;3.55;1.25;;;20.60;99.90;;;;;;4990017;28;20552;-78
2022/06/08 09:54:13;;;;;;;3.25;1.60;;;20.60;99.90;;;;;;4999251;28;20204;-78
2022/06/08 09:56:56;;;;;;;1.92;1.52;;;20.70;99.90;;;;;;4984984;28;20217;-78
2022/06/08 09:59:43;;;;;;;3.75;1.38;;;20.50;99.90;;;;;;4985481;28;20197;-79
2022/06/08 10:02:23;;;;;;;1.85;1.20;;;20.50;99.90;;;;;;4987725;28;20200;-78
2022/06/08 10:05:06;;;;;;;2.25;1.00;;;20.70;99.90;;;;;;4981328;28;20317;-78
2022/06/08 10:07:45;;;;;;;1.90;1.40;;;20.90;99.90;;;;;;4986258;28;20537;-78
2022/06/08 10:10:35;;;;;;;3.75;1.40;;;21.00;99.90;;;;;;4997109;28;20192;-78
2022/06/08 10:13:12;;;;;;;2.13;1.13;;;21.10;99.90;;;;;;5002047;28;20204;-78
2022/06/08 10:19:07;;;;;;;2.05;1.65;;;20.90;99.90;;;;;;4982432;28;20552;-78
2022/06/08 10:21:38;;;;;;;3.13;1.10;;;20.80;99.90;;;;;;4991000;28;20212;-78
2022/06/08 10:24:12;;;;;;;2.88;1.20;;;21.00;99.80;;;;;;5002379;28;20224;-78
2022/06/08 10:26:44;;;;;;;2.90;1.10;;;21.10;98.90;;;;;;4992262;28;20215;-78
2022/06/08 10:29:18;;;;;;;4.07;1.50;;;21.20;98.30;;;;;;4991348;28;20197;-78
2022/06/08 10:31:55;;;;;;;2.97;1.05;;;21.10;99.90;;;;;;5004995;28;20188;-79
2022/06/08 10:34:55;;;;;;;2.95;1.17;;;21.40;99.90;;;;;;4974158;28;20177;-78
2022/06/08 10:37:35;;;;;;;0.82;0.80;;;21.30;99.90;;;;;;5001224;28;20675;-78
2022/06/08 10:40:10;;;;;;;2.72;1.10;;;21.40;99.90;;;;;;4986420;28;20203;-78
2022/06/08 10:42:46;;;;;;;1.38;1.17;;;21.40;99.90;;;;;;4993188;28;20223;-78
2022/06/08 10:45:45;;;;;;;12.82;1.50;;;21.40;98.90;;;;;;4984416;28;20247;-78
2022/06/08 10:48:42;;;;;;;4.90;1.52;;;21.50;99.90;;;;;;4991927;28;20212;-78
2022/06/08 10:51:42;;;;;;;1.80;1.05;;;21.90;97.30;;;;;;4993036;28;20557;-78
2022/06/08 10:57:42;;;;;;;2.70;1.50;;;22.10;96.90;;;;;;5005322;28;20207;-78
2022/06/08 11:00:25;;;;;;;1.52;1.00;;;22.00;96.90;;;;;;4990726;28;20200;-78
2022/06/08 11:03:02;;;;;;;3.33;1.20;;;22.00;96.10;;;;;;4990336;28;20215;-78
2022/06/08 11:05:35;;;;;;;1.30;0.90;;;21.90;97.80;;;;;;4989680;28;20219;-79
2022/06/08 11:08:22;;;;;;;3.28;1.27;;;22.10;97.90;;;;;;5002587;28;20193;-78
2022/06/08 11:10:57;;;;;;;3.95;1.50;;;22.00;95.10;;;;;;5004428;28;20211;-78
2022/06/08 11:13:33;;;;;;;1.20;0.77;;;21.90;94.90;;;;;;4991412;28;20200;-78
2022/06/08 11:16:11;;;;;;;2.45;1.00;;;22.10;96.20;;;;;;4985758;28;20228;-79
2022/06/08 11:18:47;;;;;;;2.80;1.13;;;22.00;96.10;;;;;;4985639;28;20210;-78
2022/06/08 11:21:58;;;;;;;3.47;1.50;;;22.00;97.10;;;;;;4991307;28;20204;-78
2022/06/08 11:24:29;;;;;;;2.10;1.25;;;22.00;94.40;;;;;;4991704;28;20207;-78
2022/06/08 11:27:26;;;;;;;2.53;1.15;;;22.00;94.80;;;;;;4991781;28;20224;-78
2022/06/08 11:29:56;;;;;;;3.85;1.45;;;22.00;95.30;;;;;;4988396;28;20205;-78
2022/06/08 11:33:12;;;;;;;1.60;1.13;;;21.90;95.30;;;;;;4993590;28;20192;-78
2022/06/08 11:36:00;;;;;;;1.63;1.10;;;21.80;94.20;;;;;;4988079;28;20236;-78
2022/06/08 11:38:53;;;;;;;4.05;1.45;;;21.90;94.20;;;;;;4955723;28;20201;-79
2022/06/08 11:41:31;;;;;;;3.95;1.38;;;21.90;93.80;;;;;;4980278;28;20651;-78
2022/06/08 11:44:04;;;;;;;4.13;1.35;;;21.30;97.50;;;;;;5000630;28;20204;-78
2022/06/08 11:46:35;;;;;;;4.72;1.77;;;20.40;99.90;;;;;;4982575;28;20247;-78
2022/06/08 11:49:05;;;;;;;4.90;1.92;;;20.00;99.90;;;;;;4994648;28;20653;-79
2022/06/08 11:51:38;;;;;;;4.55;1.80;;;19.90;99.90;;;;;;4993303;28;20208;-78
2022/06/08 11:54:17;;;;;;;6.03;2.10;;;19.00;99.90;;;;;;5008411;28;20196;-78
2022/06/08 11:56:59;;;;;;;5.50;2.33;;;18.60;99.90;;;;;;5008301;28;20709;-79
2022/06/08 11:59:27;;;;;;;3.90;1.70;;;18.60;99.90;;;;;;4990865;28;20188;-78
2022/06/08 12:02:00;;;;;;;5.05;2.20;;;18.50;99.90;;;;;;4995552;28;20203;-78
2022/06/08 12:04:31;;;;;;;3.83;2.17;;;18.10;99.90;;;;;;4985880;28;20567;-78
2022/06/08 12:07:01;;;;;;;6.93;1.90;;;18.10;99.90;;;;;;4993412;28;20231;-78
2022/06/08 12:09:34;;;;;;;4.80;2.13;;;17.80;99.90;;;;;;4993820;28;20207;-78
2022/06/08 12:12:06;;;;;;;6.75;2.22;;;17.60;99.90;;;;;;4994381;28;20578;-77
2022/06/08 12:14:43;;;;;;;5.07;2.35;;;17.40;99.90;;;;;;4993355;28;20203;-78
2022/06/08 12:17:32;;;;;;;4.85;2.50;;;17.30;99.90;;;;;;4994320;28;20233;-78
2022/06/08 12:20:02;;;;;;;5.78;2.63;;;17.50;99.90;;;;;;4995061;28;20196;-78
2022/06/08 12:22:33;;;;;;;5.60;3.10;;;17.40;99.90;;;;;;4994971;28;20208;-78
2022/06/08 12:25:17;;;;;;;8.25;3.30;;;17.50;99.90;;;;;;4995951;28;20185;-78
2022/06/08 12:27:52;;;;;;;5.05;3.28;;;17.50;99.90;;;;;;4980997;28;20212;-78
2022/06/08 12:30:22;;;;;;;5.30;3.35;;;17.60;99.90;;;;;;4976812;28;20180;-78
2022/06/08 12:33:01;;;;;;;13.93;3.67;;;17.60;99.90;;;;;;4988182;28;20224;-78
2022/06/08 12:35:35;;;;;;;5.55;3.55;;;17.70;99.90;;;;;;4983482;28;20696;-79
2022/06/08 12:38:19;;;;;;;8.15;3.55;;;17.70;99.90;;;;;;4991598;28;20199;-78
2022/06/08 12:41:10;;;;;;;7.78;4.30;;;17.50;99.90;;;;;;5006924;28;20207;-78
2022/06/08 12:43:49;;;;;;;5.68;4.50;;;17.30;99.90;;;;;;4987021;28;20192;-78
2022/06/08 12:46:31;;;;;;;7.72;4.65;;;17.40;99.90;;;;;;4980801;28;20698;-78
2022/06/08 12:49:18;;;;;;;6.78;4.82;;;17.50;99.90;;;;;;4988274;28;20205;-79
2022/06/08 12:51:49;;;;;;;6.25;4.50;;;17.60;99.90;;;;;;4988373;28;20211;-78
2022/06/08 12:54:43;;;;;;;5.28;3.97;;;17.70;99.90;;;;;;4984222;28;20189;-79
2022/06/08 12:57:14;;;;;;;4.70;3.72;;;17.60;99.90;;;;;;5002548;28;20690;-78
2022/06/08 12:59:42;;;;;;;6.38;3.80;;;17.50;99.90;;;;;;4993220;28;20203;-78
2022/06/08 13:02:14;;;;;;;9.02;5.28;;;17.30;99.90;;;;;;4993225;28;20204;-78
2022/06/08 13:04:42;;;;;;;8.68;4.53;;;17.30;99.90;;;;;;4990851;28;20230;-79
2022/06/08 13:07:13;;;;;;;10.20;3.88;;;17.50;99.90;;;;;;4989615;28;20225;-78
2022/06/08 13:09:40;;;;;;;7.00;3.80;;;17.60;99.90;;;;;;4976522;28;20208;-79
2022/06/08 13:12:17;;;;;;;8.15;4.50;;;17.80;99.90;;;;;;4976030;28;20204;-78
2022/06/08 13:14:46;;;;;;;7.00;3.63;;;17.60;99.90;;;;;;4985413;28;20200;-78
2022/06/08 13:17:14;;;;;;;5.95;3.35;;;17.60;99.90;;;;;;4990444;28;20216;-79
2022/06/08 13:19:42;;;;;;;5.32;3.45;;;17.70;99.90;;;;;;5005438;28;20199;-78
2022/06/08 13:22:11;;;;;;;5.80;3.15;;;17.60;99.90;;;;;;4992477;28;20210;-78
2022/06/08 13:24:39;;;;;;;4.43;3.20;;;17.50;99.90;;;;;;4993276;28;20570;-78
2022/06/08 13:27:13;;;;;;;6.28;3.20;;;17.50;99.90;;;;;;5006556;28;20216;-78
2022/06/08 13:29:40;;;;;;;6.60;3.22;;;17.60;99.90;;;;;;4991890;28;20539;-78
2022/06/08 13:32:17;;;;;;;4.28;2.78;;;17.60;99.90;;;;;;5007144;28;20200;-79
2022/06/08 13:34:45;;;;;;;6.22;3.13;;;17.80;99.90;;;;;;5011690;28;20207;-80